Observation data for Saint Lawrence on 04/22/2019      Previous  Date       Current Mesonet Observations  Soil Data  Daily Summary Page  Observations in Plain Language
KST1 220500Z 18013KT 21/14 A2993 RMK A01 T02080137  RH  065%=      5-min Rain = 0
KST1 220505Z 18014KT 21/14 A2993 RMK A01 T02070137  RH  065%=      5-min Rain = 0
KST1 220510Z 18013KT 21/14 A2993 RMK A01 T02060137  RH  066%=      5-min Rain = 0
KST1 220515Z 18014KT 21/14 A2993 RMK A01 T02060137  RH  066%=      5-min Rain = 0
KST1 220520Z 17012KT 21/14 A2993 RMK A01 T02050136  RH  066%=      5-min Rain = 0
KST1 220525Z 17012KT 20/14 A2993 RMK A01 T02040136  RH  066%=      5-min Rain = 0
KST1 220530Z 17013KT 20/14 A2993 RMK A01 T02040136  RH  066%=      5-min Rain = 0
KST1 220535Z 18012G17KT 20/14 A2993 RMK A01 T02030135  RH  066%=      5-min Rain = 0
KST1 220540Z 18013KT 20/14 A2993 RMK A01 T02030135  RH  066%=      5-min Rain = 0
KST1 220545Z 17013KT 20/13 A2993 RMK A01 T02030134  RH  066%=      5-min Rain = 0
KST1 220550Z 18013KT 20/13 A2993 RMK A01 T02020134  RH  066%=      5-min Rain = 0
KST1 220555Z 17013KT 20/13 A2993 RMK A01 T02020133  RH  066%=      5-min Rain = 0
KST1 220600Z 17014KT 20/13 A2993 RMK A01 T02030132  RH  065%=      5-min Rain = 0
KST1 220605Z 17014KT 20/13 A2993 RMK A01 T02020131  RH  065%=      5-min Rain = 0
KST1 220610Z 17014G19KT 20/13 A2993 RMK A01 T02030130  RH  064%=      5-min Rain = 0
KST1 220615Z 17013KT 20/13 A2993 RMK A01 T02020130  RH  064%=      5-min Rain = 0
KST1 220620Z 18014KT 20/13 A2993 RMK A01 T02030129  RH  064%=      5-min Rain = 0
KST1 220625Z 18015KT 20/13 A2993 RMK A01 T02030128  RH  063%=      5-min Rain = 0
KST1 220630Z 18014KT 20/13 A2993 RMK A01 T02020128  RH  064%=      5-min Rain = 0
KST1 220635Z 18015KT 20/13 A2992 RMK A01 T02020128  RH  064%=      5-min Rain = 0
KST1 220640Z 18014KT 20/13 A2992 RMK A01 T02010128  RH  064%=      5-min Rain = 0
KST1 220645Z 18014KT 20/13 A2992 RMK A01 T02000128  RH  064%=      5-min Rain = 0
KST1 220650Z 18013KT 20/13 A2992 RMK A01 T02000128  RH  065%=      5-min Rain = 0
KST1 220655Z 18013KT 20/13 A2992 RMK A01 T01980128  RH  065%=      5-min Rain = 0
KST1 220700Z 18012KT 20/13 A2992 RMK A01 T01970128  RH  065%=      5-min Rain = 0
KST1 220705Z 18013KT 20/13 A2992 RMK A01 T01970128  RH  066%=      5-min Rain = 0
KST1 220710Z 18013KT 20/13 A2992 RMK A01 T01970128  RH  066%=      5-min Rain = 0
KST1 220715Z 18012KT 20/13 A2992 RMK A01 T01960128  RH  066%=      5-min Rain = 0
KST1 220720Z 18012KT 20/13 A2992 RMK A01 T01950128  RH  067%=      5-min Rain = 0
KST1 220725Z 17011KT 19/13 A2992 RMK A01 T01940128  RH  067%=      5-min Rain = 0
KST1 220730Z 17011KT 19/13 A2992 RMK A01 T01920128  RH  068%=      5-min Rain = 0
KST1 220735Z 16010KT 19/13 A2992 RMK A01 T01910128  RH  068%=      5-min Rain = 0
KST1 220740Z 16010KT 19/13 A2992 RMK A01 T01890128  RH  069%=      5-min Rain = 0
KST1 220745Z 16010KT 19/13 A2992 RMK A01 T01870128  RH  070%=      5-min Rain = 0
KST1 220750Z 16011KT 19/13 A2991 RMK A01 T01880128  RH  070%=      5-min Rain = 0
KST1 220755Z 16012KT 19/13 A2991 RMK A01 T01880128  RH  069%=      5-min Rain = 0
KST1 220800Z 16011KT 19/13 A2991 RMK A01 T01870128  RH  069%=      5-min Rain = 0
KST1 220805Z 16011KT 19/13 A2991 RMK A01 T01860127  RH  070%=      5-min Rain = 0
KST1 220810Z 16011KT 18/13 A2991 RMK A01 T01840127  RH  071%=      5-min Rain = 0
KST1 220815Z 16010KT 18/13 A2991 RMK A01 T01830127  RH  071%=      5-min Rain = 0
KST1 220820Z 16010KT 18/13 A2991 RMK A01 T01810127  RH  072%=      5-min Rain = 0
KST1 220825Z 16011KT 18/13 A2991 RMK A01 T01810127  RH  072%=      5-min Rain = 0
KST1 220830Z 16010KT 18/13 A2991 RMK A01 T01810127  RH  072%=      5-min Rain = 0
KST1 220835Z 15010KT 18/13 A2991 RMK A01 T01800127  RH  073%=      5-min Rain = 0
KST1 220840Z 15010KT 18/13 A2991 RMK A01 T01790128  RH  073%=      5-min Rain = 0
KST1 220845Z 16010KT 18/13 A2991 RMK A01 T01790128  RH  073%=      5-min Rain = 0
KST1 220850Z 16011KT 18/13 A2991 RMK A01 T01790128  RH  073%=      5-min Rain = 0
KST1 220855Z 16012KT 18/13 A2991 RMK A01 T01800128  RH  073%=      5-min Rain = 0
KST1 220900Z 16011KT 18/13 A2991 RMK A01 T01790128  RH  073%=      5-min Rain = 0
KST1 220905Z 15010KT 18/13 A2991 RMK A01 T01770128  RH  074%=      5-min Rain = 0
KST1 220910Z 15012KT 18/13 A2991 RMK A01 T01770129  RH  075%=      5-min Rain = 0
KST1 220915Z 15012KT 18/13 A2991 RMK A01 T01770129  RH  075%=      5-min Rain = 0
KST1 220920Z 15012KT 18/13 A2991 RMK A01 T01770130  RH  075%=      5-min Rain = 0
KST1 220925Z 15011KT 18/13 A2991 RMK A01 T01760130  RH  076%=      5-min Rain = 0
KST1 220930Z 15011KT 18/13 A2991 RMK A01 T01750130  RH  077%=      5-min Rain = 0
KST1 220935Z 15010KT 17/13 A2991 RMK A01 T01740131  RH  077%=      5-min Rain = 0
KST1 220940Z 15011KT 17/13 A2991 RMK A01 T01730132  RH  078%=      5-min Rain = 0
KST1 220945Z 15012KT 17/13 A2991 RMK A01 T01740134  RH  078%=      5-min Rain = 0
KST1 220950Z 15011KT 17/13 A2991 RMK A01 T01740134  RH  079%=      5-min Rain = 0
KST1 220955Z 15011KT 17/14 A2991 RMK A01 T01730135  RH  080%=      5-min Rain = 0
KST1 221000Z 14011KT 17/14 A2991 RMK A01 T01720136  RH  081%=      5-min Rain = 0
KST1 221005Z 14012KT 17/14 A2991 RMK A01 T01720137  RH  082%=      5-min Rain = 0
KST1 221010Z 15012KT 17/14 A2991 RMK A01 T01720138  RH  082%=      5-min Rain = 0
KST1 221015Z 15011KT 17/14 A2991 RMK A01 T01710138  RH  083%=      5-min Rain = 0
KST1 221020Z 15012KT 17/14 A2992 RMK A01 T01700138  RH  083%=      5-min Rain = 0
KST1 221025Z 15013KT 17/14 A2992 RMK A01 T01710139  RH  083%=      5-min Rain = 0
KST1 221030Z 16014KT 17/14 A2992 RMK A01 T01710139  RH  083%=      5-min Rain = 0
KST1 221035Z 16012KT 17/14 A2992 RMK A01 T01710138  RH  083%=      5-min Rain = 0
KST1 221040Z 16011KT 17/14 A2992 RMK A01 T01700138  RH  083%=      5-min Rain = 0
KST1 221045Z 15011KT 17/14 A2992 RMK A01 T01690138  RH  083%=      5-min Rain = 0
KST1 221050Z 16012KT 17/14 A2992 RMK A01 T01690138  RH  084%=      5-min Rain = 0
KST1 221055Z 16012KT 17/14 A2992 RMK A01 T01690138  RH  083%=      5-min Rain = 0
KST1 221100Z 16011KT 17/14 A2992 RMK A01 T01690138  RH  084%=      5-min Rain = 0
KST1 221105Z 16010KT 17/14 A2992 RMK A01 T01680138  RH  084%=      5-min Rain = 0
KST1 221110Z 16009KT 17/14 A2992 RMK A01 T01660137  RH  085%=      5-min Rain = 0
KST1 221115Z 15010KT 16/14 A2993 RMK A01 T01640137  RH  086%=      5-min Rain = 0
KST1 221120Z 15010KT 16/14 A2992 RMK A01 T01640137  RH  086%=      5-min Rain = 0
KST1 221125Z 16010KT 16/14 A2992 RMK A01 T01630138  RH  087%=      5-min Rain = 0
KST1 221130Z 16010KT 16/14 A2992 RMK A01 T01630138  RH  087%=      5-min Rain = 0
KST1 221135Z 16011KT 16/14 A2993 RMK A01 T01630138  RH  087%=      5-min Rain = 0
KST1 221140Z 16011KT 16/14 A2993 RMK A01 T01630138  RH  086%=      5-min Rain = 0
KST1 221145Z 16012KT 16/14 A2992 RMK A01 T01640138  RH  086%=      5-min Rain = 0
KST1 221150Z 16013KT 17/14 A2993 RMK A01 T01650138  RH  086%=      5-min Rain = 0
KST1 221155Z 16013KT 17/14 A2993 RMK A01 T01650138  RH  086%=      5-min Rain = 0
KST1 221200Z 16012KT 16/14 A2993 RMK A01 T01640138  RH  086%=      5-min Rain = 0
KST1 221205Z 16012KT 16/14 A2994 RMK A01 T01640138  RH  086%=      5-min Rain = 0
KST1 221210Z 16013KT 16/14 A2994 RMK A01 T01630138  RH  087%=      5-min Rain = 0
KST1 221215Z 16013KT 16/14 A2994 RMK A01 T01630138  RH  087%=      5-min Rain = 0
KST1 221220Z 15012KT 16/14 A2994 RMK A01 T01630138  RH  087%=      5-min Rain = 0
KST1 221225Z 15012KT 16/14 A2994 RMK A01 T01620138  RH  087%=      5-min Rain = 0
KST1 221230Z 15013KT 16/14 A2994 RMK A01 T01620138  RH  088%=      5-min Rain = 0
KST1 221235Z 15014KT 16/14 A2994 RMK A01 T01610139  RH  088%=      5-min Rain = 0
KST1 221240Z 15014KT 16/14 A2994 RMK A01 T01610139  RH  089%=      5-min Rain = 0
KST1 221245Z 15014KT 16/14 A2994 RMK A01 T01620140  RH  088%=      5-min Rain = 0
KST1 221250Z 16014KT 16/14 A2995 RMK A01 T01630140  RH  088%=      5-min Rain = 0
KST1 221255Z 16014KT 16/14 A2995 RMK A01 T01630141  RH  088%=      5-min Rain = 0
KST1 221300Z 16014KT 16/14 A2995 RMK A01 T01640141  RH  088%=      5-min Rain = 0
KST1 221305Z 16014KT 16/14 A2995 RMK A01 T01640141  RH  088%=      5-min Rain = 0
KST1 221310Z 16014KT 16/14 A2995 RMK A01 T01640141  RH  088%=      5-min Rain = 0
KST1 221315Z 16015KT 17/14 A2995 RMK A01 T01650142  RH  088%=      5-min Rain = 0
KST1 221320Z 15015KT 17/14 A2995 RMK A01 T01650142  RH  088%=      5-min Rain = 0
KST1 221325Z 16014KT 17/14 A2995 RMK A01 T01650143  RH  088%=      5-min Rain = 0
KST1 221330Z 16015KT 17/14 A2995 RMK A01 T01660143  RH  088%=      5-min Rain = 0
KST1 221335Z 16014KT 17/14 A2996 RMK A01 T01670143  RH  088%=      5-min Rain = 0
KST1 221340Z 16014KT 17/14 A2996 RMK A01 T01670144  RH  088%=      5-min Rain = 0
KST1 221345Z 16016KT 17/14 A2996 RMK A01 T01680144  RH  087%=      5-min Rain = 0
KST1 221350Z 17016KT 17/14 A2996 RMK A01 T01690144  RH  087%=      5-min Rain = 0
KST1 221355Z 17016KT 17/14 A2996 RMK A01 T01690144  RH  087%=      5-min Rain = 0
KST1 221400Z 16016KT 17/14 A2996 RMK A01 T01690144  RH  087%=      5-min Rain = 0
KST1 221405Z 16015KT 17/14 A2996 RMK A01 T01690144  RH  087%=      5-min Rain = 0
KST1 221410Z 17015KT 17/15 A2997 RMK A01 T01700145  RH  087%=      5-min Rain = 0
KST1 221415Z 16016KT 17/14 A2996 RMK A01 T01700144  RH  087%=      5-min Rain = 0
KST1 221420Z 16014KT 17/15 A2996 RMK A01 T01710146  RH  087%=      5-min Rain = 0
KST1 221425Z 16015KT 17/15 A2996 RMK A01 T01710145  RH  086%=      5-min Rain = 0
KST1 221430Z 16014KT 17/15 A2996 RMK A01 T01710145  RH  086%=      5-min Rain = 0
KST1 221435Z 17015KT 17/15 A2997 RMK A01 T01720145  RH  086%=      5-min Rain = 0
KST1 221440Z 17014KT 17/15 A2997 RMK A01 T01730145  RH  085%=      5-min Rain = 0
KST1 221445Z 17014KT 17/15 A2997 RMK A01 T01740146  RH  085%=      5-min Rain = 0
KST1 221450Z 17016KT 17/15 A2997 RMK A01 T01740145  RH  085%=      5-min Rain = 0
KST1 221455Z 16016KT 18/15 A2997 RMK A01 T01750145  RH  085%=      5-min Rain = 0
KST1 221500Z 16016KT 18/15 A2997 RMK A01 T01750145  RH  084%=      5-min Rain = 0
KST1 221505Z 17017KT 18/15 A2997 RMK A01 T01770145  RH  083%=      5-min Rain = 0
KST1 221510Z 17017KT 18/15 A2997 RMK A01 T01770145  RH  083%=      5-min Rain = 0
KST1 221515Z 16017KT 18/15 A2997 RMK A01 T01770145  RH  083%=      5-min Rain = 0
KST1 221520Z 17017KT 18/15 A2997 RMK A01 T01780145  RH  083%=      5-min Rain = 0
KST1 221525Z 17017KT 18/15 A2997 RMK A01 T01790145  RH  082%=      5-min Rain = 0
KST1 221530Z 17016KT 18/15 A2997 RMK A01 T01790145  RH  082%=      5-min Rain = 0
KST1 221535Z 16016KT 18/15 A2997 RMK A01 T01810146  RH  082%=      5-min Rain = 0
KST1 221540Z 16018KT 18/15 A2997 RMK A01 T01800145  RH  081%=      5-min Rain = 0
KST1 221545Z 17018KT 18/15 A2997 RMK A01 T01810145  RH  081%=      5-min Rain = 0
KST1 221550Z 16017KT 18/15 A2997 RMK A01 T01820145  RH  081%=      5-min Rain = 0
KST1 221555Z 17017KT 18/15 A2997 RMK A01 T01830145  RH  080%=      5-min Rain = 0
KST1 221600Z 16017KT 18/15 A2997 RMK A01 T01830145  RH  080%=      5-min Rain = 0
KST1 221605Z 16017KT 18/15 A2997 RMK A01 T01840146  RH  080%=      5-min Rain = 0
KST1 221610Z 17017KT 19/15 A2998 RMK A01 T01870146  RH  079%=      5-min Rain = 0
KST1 221615Z 17016G21KT 19/15 A2998 RMK A01 T01860146  RH  079%=      5-min Rain = 0
KST1 221620Z 16014KT 19/15 A2999 RMK A01 T01890147  RH  078%=      5-min Rain = 0
KST1 221625Z 16014KT 19/15 A2998 RMK A01 T01900147  RH  078%=      5-min Rain = 0
KST1 221630Z 17011KT 19/15 A2999 RMK A01 T01930148  RH  077%=      5-min Rain = 0
KST1 221635Z 16013KT 19/15 A2999 RMK A01 T01940147  RH  076%=      5-min Rain = 0
KST1 221640Z 17014KT 20/15 A2999 RMK A01 T01950147  RH  075%=      5-min Rain = 0
KST1 221645Z 15013KT 20/15 A2998 RMK A01 T01960147  RH  075%=      5-min Rain = 0
KST1 221650Z 14016KT 20/15 A2998 RMK A01 T01970147  RH  074%=      5-min Rain = 0
KST1 221655Z 14011G17KT 20/15 A2998 RMK A01 T01950146  RH  075%=      5-min Rain = 0
KST1 221700Z 15011KT 20/15 A2998 RMK A01 T01960147  RH  075%=      5-min Rain = 0
KST1 221705Z 14011KT 20/15 A2998 RMK A01 T01980148  RH  074%=      5-min Rain = 0
KST1 221710Z 14013KT 20/15 A2997 RMK A01 T02010148  RH  073%=      5-min Rain = 0
KST1 221715Z 15011G16KT 20/15 A2998 RMK A01 T02020147  RH  073%=      5-min Rain = 0
KST1 221720Z 16012KT 20/15 A2998 RMK A01 T02020147  RH  072%=      5-min Rain = 0
KST1 221725Z 14013KT 20/15 A2997 RMK A01 T01990146  RH  073%=      5-min Rain = 0
KST1 221730Z 15014KT 20/15 A2998 RMK A01 T01990146  RH  073%=      5-min Rain = 0
KST1 221735Z 16013KT 20/15 A2998 RMK A01 T02020147  RH  072%=      5-min Rain = 0
KST1 221740Z 15012G17KT 20/15 A2999 RMK A01 T02040148  RH  072%=      5-min Rain = 0
KST1 221745Z 15010KT 20/15 A30 RMK A01 T02030147  RH  072%=      5-min Rain = 0
KST1 221750Z 15010KT 20/15 A3001 RMK A01 T02020146  RH  072%=      5-min Rain = 0
KST1 221755Z 15006KT 20/15 A3002 RMK A01 T02000145  RH  073%=      5-min Rain = 0
KST1 221800Z 15006KT 20/15 A3001 RMK A01 T02010146  RH  072%=      5-min Rain = 0
KST1 221805Z 15006G11KT 21/15 A3001 RMK A01 T02050147  RH  071%=      5-min Rain = 0
KST1 221810Z 14006KT 21/15 A3001 RMK A01 T02060146  RH  070%=      5-min Rain = 0
KST1 221815Z 16009KT 21/15 A3001 RMK A01 T02070146  RH  070%=      5-min Rain = 0
KST1 221820Z 14009KT 21/15 A3001 RMK A01 T02070146  RH  069%=      5-min Rain = 0
KST1 221825Z 14009KT 21/15 A30 RMK A01 T02090147  RH  069%=      5-min Rain = 0
KST1 221830Z 16010KT 21/15 A30 RMK A01 T02090146  RH  068%=      5-min Rain = 0
KST1 221835Z 15011KT 21/15 A30 RMK A01 T02110148  RH  069%=      5-min Rain = 0
KST1 221840Z 16012KT 21/15 A30 RMK A01 T02140147  RH  067%=      5-min Rain = 0
KST1 221845Z 16012KT 21/15 A30 RMK A01 T02140147  RH  067%=      5-min Rain = 0
KST1 221850Z 15010KT 21/15 A2999 RMK A01 T02140148  RH  067%=      5-min Rain = 0
KST1 221855Z 15009KT 22/15 A2999 RMK A01 T02170148  RH  066%=      5-min Rain = 0
KST1 221900Z 15009KT 22/15 A30 RMK A01 T02180147  RH  066%=      5-min Rain = 0
KST1 221905Z 15010KT 21/15 A30 RMK A01 T02130146  RH  067%=      5-min Rain = 0
KST1 221910Z 16010KT 21/15 A30 RMK A01 T02130147  RH  067%=      5-min Rain = 0
KST1 221915Z 17012KT 22/15 A30 RMK A01 T02170147  RH  065%=      5-min Rain = 0
KST1 221920Z 17011KT 22/15 A2999 RMK A01 T02190146  RH  065%=      5-min Rain = 0
KST1 221925Z 16010KT 22/15 A2999 RMK A01 T02230148  RH  064%=      5-min Rain = 0
KST1 221930Z 16009KT 22/15 A2999 RMK A01 T02210147  RH  064%=      5-min Rain = 0
KST1 221935Z 14008KT 22/15 A2998 RMK A01 T02220147  RH  064%=      5-min Rain = 0
KST1 221940Z 14009G14KT 22/15 A2998 RMK A01 T02210145  RH  064%=      5-min Rain = 0
KST1 221945Z 15008G13KT 22/15 A2998 RMK A01 T02160146  RH  066%=      5-min Rain = 0
KST1 221950Z 15011G16KT 23/15 A2998 RMK A01 T02260147  RH  062%=      5-min Rain = 0
KST1 221955Z 15012G18KT 23/15 A2998 RMK A01 T02320148  RH  061%=      5-min Rain = 0
KST1 222000Z 14011KT 23/15 A2998 RMK A01 T02270147  RH  062%=      5-min Rain = 0
KST1 222005Z 14014KT 23/15 A2997 RMK A01 T02320146  RH  060%=      5-min Rain = 0
KST1 222010Z 14011KT 22/14 A2997 RMK A01 T02230144  RH  062%=      5-min Rain = 0
KST1 222015Z 13011G16KT 22/15 A2997 RMK A01 T02240145  RH  062%=      5-min Rain = 0
KST1 222020Z 15011KT 22/14 A2996 RMK A01 T02240143  RH  062%=      5-min Rain = 0
KST1 222025Z 15013KT 22/14 A2996 RMK A01 T02220144  RH  063%=      5-min Rain = 0
KST1 222030Z 14012KT 22/14 A2996 RMK A01 T02210144  RH  063%=      5-min Rain = 0
KST1 222035Z 14011G16KT 22/14 A2996 RMK A01 T02210144  RH  063%=      5-min Rain = 0
KST1 222040Z 13012KT 22/15 A2995 RMK A01 T02230145  RH  063%=      5-min Rain = 0
KST1 222045Z 12011KT 23/15 A2995 RMK A01 T02260145  RH  062%=      5-min Rain = 0
KST1 222050Z 13011KT 23/15 A2996 RMK A01 T02290147  RH  061%=      5-min Rain = 0
KST1 222055Z 13012KT 23/15 A2996 RMK A01 T02260145  RH  061%=      5-min Rain = 0
KST1 222100Z 13010G15KT 23/15 A2997 RMK A01 T02250147  RH  063%=      5-min Rain = 0
KST1 222105Z 13011KT 23/15 A2997 RMK A01 T02280149  RH  062%=      5-min Rain = 0
KST1 222110Z 14012KT 23/15 A2997 RMK A01 T02320147  RH  060%=      5-min Rain = 0
KST1 222115Z 12010KT 23/15 A2997 RMK A01 T02300149  RH  062%=      5-min Rain = 0
KST1 222120Z 14010KT 23/15 A2997 RMK A01 T02310148  RH  061%=      5-min Rain = 0
KST1 222125Z 13010KT 23/15 A2997 RMK A01 T02290148  RH  061%=      5-min Rain = 0
KST1 222130Z 13009KT 23/15 A2996 RMK A01 T02300148  RH  061%=      5-min Rain = 0
KST1 222135Z 15008KT 23/15 A2997 RMK A01 T02300148  RH  061%=      5-min Rain = 0
KST1 222140Z 16010KT 23/15 A2997 RMK A01 T02310146  RH  060%=      5-min Rain = 0
KST1 222145Z 16011KT 23/15 A2997 RMK A01 T02310146  RH  060%=      5-min Rain = 0
KST1 222150Z 15012KT 23/15 A2996 RMK A01 T02320146  RH  060%=      5-min Rain = 0
KST1 222155Z 15013KT 23/14 A2996 RMK A01 T02290144  RH  060%=      5-min Rain = 0
KST1 222200Z 15011KT 23/15 A2996 RMK A01 T02270145  RH  061%=      5-min Rain = 0
KST1 222205Z 15012KT 23/15 A2996 RMK A01 T02280145  RH  061%=      5-min Rain = 0
KST1 222210Z 15010KT 22/15 A2996 RMK A01 T02240145  RH  062%=      5-min Rain = 0
KST1 222215Z 15009KT 22/15 A2996 RMK A01 T02230147  RH  064%=      5-min Rain = 0
KST1 222220Z 15010KT 22/15 A2997 RMK A01 T02220148  RH  064%=      5-min Rain = 0
KST1 222225Z 15009KT 22/15 A2996 RMK A01 T02230149  RH  065%=      5-min Rain = 0
KST1 222230Z 15009G14KT 22/15 A2997 RMK A01 T02230150  RH  065%=      5-min Rain = 0
KST1 222235Z 15008KT 22/15 A2996 RMK A01 T02220150  RH  065%=      5-min Rain = 0
KST1 222240Z 14008KT 22/15 A2996 RMK A01 T02220150  RH  065%=      5-min Rain = 0
KST1 222245Z 16010KT 22/15 A2997 RMK A01 T02220151  RH  065%=      5-min Rain = 0
KST1 222250Z 17010KT 22/15 A2997 RMK A01 T02220150  RH  065%=      5-min Rain = 0
KST1 222255Z 17011KT 22/15 A2997 RMK A01 T02210149  RH  065%=      5-min Rain = 0
KST1 222300Z 17011KT 22/15 A2997 RMK A01 T02200149  RH  065%=      5-min Rain = 0
KST1 222305Z 18011KT 22/15 A2997 RMK A01 T02190149  RH  066%=      5-min Rain = 0
KST1 222310Z 15010KT 22/15 A2996 RMK A01 T02190151  RH  067%=      5-min Rain = 0
KST1 222315Z 16009KT 22/15 A2996 RMK A01 T02190151  RH  066%=      5-min Rain = 0
KST1 222320Z 17009KT 22/15 A2996 RMK A01 T02190151  RH  066%=      5-min Rain = 0
KST1 222325Z 16011KT 22/15 A2997 RMK A01 T02190150  RH  066%=      5-min Rain = 0
KST1 222330Z 16011KT 22/15 A2997 RMK A01 T02180150  RH  067%=      5-min Rain = 0
KST1 222335Z 17010KT 22/15 A2996 RMK A01 T02170149  RH  067%=      5-min Rain = 0
KST1 222340Z 17009KT 22/15 A2996 RMK A01 T02180149  RH  066%=      5-min Rain = 0
KST1 222345Z 17009KT 22/15 A2996 RMK A01 T02170148  RH  066%=      5-min Rain = 0
KST1 222350Z 16010KT 22/15 A2996 RMK A01 T02150149  RH  067%=      5-min Rain = 0
KST1 222355Z 16010KT 22/15 A2996 RMK A01 T02150147  RH  067%=      5-min Rain = 0
KST1 230000Z 17008KT 21/15 A2997 RMK A01 T02140148  RH  067%=      5-min Rain = 0
KST1 230005Z 17008KT 22/15 A2997 RMK A01 T02150148  RH  067%=      5-min Rain = 0
KST1 230010Z 18009KT 22/15 A2997 RMK A01 T02150147  RH  066%=      5-min Rain = 0
KST1 230015Z 17009KT 21/15 A2996 RMK A01 T02140145  RH  066%=      5-min Rain = 0
KST1 230020Z 15008KT 21/15 A2996 RMK A01 T02130146  RH  067%=      5-min Rain = 0
KST1 230025Z 16009KT 21/15 A2995 RMK A01 T02130148  RH  068%=      5-min Rain = 0
KST1 230030Z 17010KT 21/15 A2995 RMK A01 T02130147  RH  067%=      5-min Rain = 0
KST1 230035Z 17008KT 21/15 A2996 RMK A01 T02130147  RH  067%=      5-min Rain = 0
KST1 230040Z 17009KT 21/15 A2997 RMK A01 T02130147  RH  068%=      5-min Rain = 0
KST1 230045Z 18009KT 21/15 A2997 RMK A01 T02130148  RH  068%=      5-min Rain = 0
KST1 230050Z 18009KT 21/15 A2997 RMK A01 T02140149  RH  068%=      5-min Rain = 0
KST1 230055Z 18008KT 21/15 A2997 RMK A01 T02140149  RH  068%=      5-min Rain = 0
KST1 230100Z 18007KT 21/15 A2997 RMK A01 T02130150  RH  069%=      5-min Rain = 0
KST1 230105Z 18008KT 21/15 A2997 RMK A01 T02110149  RH  069%=      5-min Rain = 0
KST1 230110Z 17007KT 21/15 A2996 RMK A01 T02100148  RH  069%=      5-min Rain = 0
KST1 230115Z 17007KT 21/15 A2997 RMK A01 T02090148  RH  069%=      5-min Rain = 0
KST1 230120Z 18006KT 21/15 A2997 RMK A01 T02090148  RH  070%=      5-min Rain = 0
KST1 230125Z 17006KT 21/15 A2997 RMK A01 T02070148  RH  070%=      5-min Rain = 0
KST1 230130Z 17006KT 21/15 A2997 RMK A01 T02060148  RH  071%=      5-min Rain = 0
KST1 230135Z 17006KT 21/15 A2997 RMK A01 T02050148  RH  071%=      5-min Rain = 0
KST1 230140Z 19005KT 20/15 A2997 RMK A01 T02040148  RH  072%=      5-min Rain = 0
KST1 230145Z 19005KT 20/15 A2997 RMK A01 T02020149  RH  073%=      5-min Rain = 0
KST1 230150Z 18005KT 20/15 A2997 RMK A01 T02010149  RH  074%=      5-min Rain = 0
KST1 230155Z 18005KT 20/15 A2997 RMK A01 T02000149  RH  074%=      5-min Rain = 0
KST1 230200Z 17005KT 20/15 A2997 RMK A01 T01990149  RH  075%=      5-min Rain = 0
KST1 230205Z 17004KT 20/15 A2997 RMK A01 T01980149  RH  075%=      5-min Rain = 0
KST1 230210Z 17003KT 20/15 A2997 RMK A01 T01970149  RH  075%=      5-min Rain = 0
KST1 230215Z 17003KT 20/15 A2998 RMK A01 T01960149  RH  076%=      5-min Rain = 0
KST1 230220Z 15004KT 20/15 A2998 RMK A01 T01960150  RH  076%=      5-min Rain = 0
KST1 230225Z 12005KT 19/15 A2998 RMK A01 T01930149  RH  078%=      5-min Rain = 0
KST1 230230Z 12005KT 19/15 A2998 RMK A01 T01930150  RH  078%=      5-min Rain = 0
KST1 230235Z 12005KT 19/15 A2998 RMK A01 T01930150  RH  078%=      5-min Rain = 0
KST1 230240Z 12005KT 19/15 A2998 RMK A01 T01920150  RH  078%=      5-min Rain = 0
KST1 230245Z 13005KT 19/15 A2998 RMK A01 T01910150  RH  078%=      5-min Rain = 0
KST1 230250Z 15004KT 19/15 A2998 RMK A01 T01890149  RH  079%=      5-min Rain = 0
KST1 230255Z 17004KT 19/15 A2998 RMK A01 T01880149  RH  080%=      5-min Rain = 0
KST1 230300Z 17005KT 19/15 A2998 RMK A01 T01880148  RH  079%=      5-min Rain = 0
KST1 230305Z 17007KT 19/15 A2998 RMK A01 T01900148  RH  078%=      5-min Rain = 0
KST1 230310Z 17008KT 19/15 A2998 RMK A01 T01900147  RH  078%=      5-min Rain = 0
KST1 230315Z 16008KT 19/15 A2998 RMK A01 T01890147  RH  078%=      5-min Rain = 0
KST1 230320Z 16008KT 19/15 A2999 RMK A01 T01890147  RH  078%=      5-min Rain = 0
KST1 230325Z 16007KT 19/15 A2999 RMK A01 T01870146  RH  078%=      5-min Rain = 0
KST1 230330Z 16006KT 19/15 A2999 RMK A01 T01860145  RH  079%=      5-min Rain = 0
KST1 230335Z 17005KT 19/15 A2999 RMK A01 T01850145  RH  079%=      5-min Rain = 0
KST1 230340Z 16005KT 18/14 A2999 RMK A01 T01830144  RH  080%=      5-min Rain = 0
KST1 230345Z 16005KT 18/14 A2999 RMK A01 T01810143  RH  081%=      5-min Rain = 0
KST1 230350Z 16006KT 18/14 A2999 RMK A01 T01790144  RH  081%=      5-min Rain = 0
KST1 230355Z 15006KT 18/14 A2998 RMK A01 T01760142  RH  083%=      5-min Rain = 0
KST1 230400Z 15006KT 17/14 A2998 RMK A01 T01720142  RH  084%=      5-min Rain = 0
KST1 230405Z 14006KT 17/14 A2998 RMK A01 T01710142  RH  085%=      5-min Rain = 0
KST1 230410Z 14007KT 17/14 A2998 RMK A01 T01710143  RH  086%=      5-min Rain = 0
KST1 230415Z 14007KT 17/14 A2998 RMK A01 T01710144  RH  086%=      5-min Rain = 0
KST1 230420Z 14007KT 17/14 A2997 RMK A01 T01710144  RH  086%=      5-min Rain = 0
KST1 230425Z 14007KT 17/14 A2997 RMK A01 T01700144  RH  086%=      5-min Rain = 0
KST1 230430Z 13006KT 17/14 A2997 RMK A01 T01700144  RH  086%=      5-min Rain = 0
KST1 230435Z 13006KT 17/14 A2997 RMK A01 T01690143  RH  086%=      5-min Rain = 0
KST1 230440Z 12005KT 17/14 A2997 RMK A01 T01670141  RH  087%=      5-min Rain = 0
KST1 230445Z 12005KT 17/14 A2997 RMK A01 T01670142  RH  087%=      5-min Rain = 0
KST1 230450Z 12005KT 17/14 A2996 RMK A01 T01660142  RH  088%=      5-min Rain = 0
KST1 230455Z 12006KT 16/14 A2996 RMK A01 T01640141  RH  088%=      5-min Rain = 0

Page generated in 0.0091 seconds.